Terminal Aerodrome Forecast
Issued by NWS

Current Version | Previous Version | Graphics & Text | Print | Product List | Glossary On
Versions: 1 2 3 4 5 6 7 8 9 10 11 12 13 14 15 16 17 18 19 20 21 22 23 24 25 26 27 28 29 30 31 32 33
000
FTUS41 KRNK 210520
TAFLWB
TAF
KLWB 210520Z 2106/2206 24005KT P6SM BKN110
     FM211000 25005KT 4SM BR OVC060
     FM211200 26006KT 6SM BR VCSH OVC070
     FM211500 26009KT 6SM SHRA OVC025
     FM211800 26010KT 6SM -SHRA VCTS SCT020 OVC040CB
     FM220000 VRB03KT P6SM VCSH OVC035=

USA.gov is the U.S. government's official web portal to all federal, state and local government web resources and services.